sensor_id;sensor_type;location;lat;lon;timestamp;P1;durP1;ratioP1;P2;durP2;ratioP2
19758;SDS011;10038;42.662;23.278;2023-04-01T00:00:45;8.57;;;5.07;;
19758;SDS011;10038;42.662;23.278;2023-04-01T00:03:12;7.27;;;6.10;;
19758;SDS011;10038;42.662;23.278;2023-04-01T00:05:39;13.40;;;7.00;;
19758;SDS011;10038;42.662;23.278;2023-04-01T00:08:06;12.37;;;7.87;;
19758;SDS011;10038;42.662;23.278;2023-04-01T00:10:33;11.20;;;7.50;;
19758;SDS011;10038;42.662;23.278;2023-04-01T00:13:01;16.00;;;7.23;;
19758;SDS011;10038;42.662;23.278;2023-04-01T00:15:29;16.60;;;8.67;;
19758;SDS011;10038;42.662;23.278;2023-04-01T00:17:56;17.97;;;8.67;;
19758;SDS011;10038;42.662;23.278;2023-04-01T00:20:24;9.43;;;7.40;;
19758;SDS011;10038;42.662;23.278;2023-04-01T00:22:50;12.93;;;8.07;;
19758;SDS011;10038;42.662;23.278;2023-04-01T00:25:17;11.60;;;7.70;;
19758;SDS011;10038;42.662;23.278;2023-04-01T00:27:45;18.53;;;9.90;;
19758;SDS011;10038;42.662;23.278;2023-04-01T00:30:13;20.13;;;11.90;;
19758;SDS011;10038;42.662;23.278;2023-04-01T00:32:41;17.10;;;11.20;;
19758;SDS011;10038;42.662;23.278;2023-04-01T00:35:08;32.93;;;22.97;;
19758;SDS011;10038;42.662;23.278;2023-04-01T00:37:35;34.33;;;16.77;;
19758;SDS011;10038;42.662;23.278;2023-04-01T00:40:06;29.73;;;15.33;;
19758;SDS011;10038;42.662;23.278;2023-04-01T00:42:34;22.73;;;14.40;;
19758;SDS011;10038;42.662;23.278;2023-04-01T00:47:53;26.27;;;15.27;;
19758;SDS011;10038;42.662;23.278;2023-04-01T00:50:21;27.50;;;13.80;;
19758;SDS011;10038;42.662;23.278;2023-04-01T00:52:51;24.53;;;14.17;;
19758;SDS011;10038;42.662;23.278;2023-04-01T00:55:18;20.40;;;12.20;;
19758;SDS011;10038;42.662;23.278;2023-04-01T00:57:47;17.40;;;10.00;;
19758;SDS011;10038;42.662;23.278;2023-04-01T01:00:17;18.40;;;10.07;;
19758;SDS011;10038;42.662;23.278;2023-04-01T01:02:45;18.67;;;11.07;;
19758;SDS011;10038;42.662;23.278;2023-04-01T01:05:15;16.77;;;10.63;;
19758;SDS011;10038;42.662;23.278;2023-04-01T01:07:47;19.63;;;10.40;;
19758;SDS011;10038;42.662;23.278;2023-04-01T01:10:25;18.93;;;9.40;;
19758;SDS011;10038;42.662;23.278;2023-04-01T01:12:59;17.40;;;9.80;;
19758;SDS011;10038;42.662;23.278;2023-04-01T01:15:32;15.77;;;9.53;;
19758;SDS011;10038;42.662;23.278;2023-04-01T01:18:07;13.90;;;9.40;;
19758;SDS011;10038;42.662;23.278;2023-04-01T01:20:56;18.70;;;7.87;;
19758;SDS011;10038;42.662;23.278;2023-04-01T01:23:56;14.23;;;8.87;;
19758;SDS011;10038;42.662;23.278;2023-04-01T01:26:46;9.67;;;7.10;;
19758;SDS011;10038;42.662;23.278;2023-04-01T01:32:16;13.20;;;7.57;;
19758;SDS011;10038;42.662;23.278;2023-04-01T01:34:55;10.87;;;5.80;;
19758;SDS011;10038;42.662;23.278;2023-04-01T01:37:33;11.83;;;5.87;;
19758;SDS011;10038;42.662;23.278;2023-04-01T01:40:02;9.90;;;6.53;;
19758;SDS011;10038;42.662;23.278;2023-04-01T01:42:32;8.30;;;5.67;;
19758;SDS011;10038;42.662;23.278;2023-04-01T01:45:03;6.07;;;5.40;;
19758;SDS011;10038;42.662;23.278;2023-04-01T01:47:32;10.83;;;5.40;;
19758;SDS011;10038;42.662;23.278;2023-04-01T01:50:01;10.30;;;6.53;;
19758;SDS011;10038;42.662;23.278;2023-04-01T01:52:31;8.37;;;5.00;;
19758;SDS011;10038;42.662;23.278;2023-04-01T01:54:58;12.07;;;5.87;;
19758;SDS011;10038;42.662;23.278;2023-04-01T01:57:26;13.43;;;5.67;;
19758;SDS011;10038;42.662;23.278;2023-04-01T01:59:56;11.10;;;4.70;;
19758;SDS011;10038;42.662;23.278;2023-04-01T02:02:28;7.83;;;4.57;;
19758;SDS011;10038;42.662;23.278;2023-04-01T02:04:57;11.90;;;5.43;;
19758;SDS011;10038;42.662;23.278;2023-04-01T02:07:25;8.30;;;4.30;;
19758;SDS011;10038;42.662;23.278;2023-04-01T02:09:59;13.73;;;5.43;;
19758;SDS011;10038;42.662;23.278;2023-04-01T02:12:26;7.80;;;3.83;;
19758;SDS011;10038;42.662;23.278;2023-04-01T02:14:56;8.53;;;4.83;;
19758;SDS011;10038;42.662;23.278;2023-04-01T02:17:26;10.90;;;5.13;;
19758;SDS011;10038;42.662;23.278;2023-04-01T02:19:56;8.57;;;4.40;;
19758;SDS011;10038;42.662;23.278;2023-04-01T02:22:26;6.00;;;4.80;;
19758;SDS011;10038;42.662;23.278;2023-04-01T02:24:57;5.30;;;4.47;;
19758;SDS011;10038;42.662;23.278;2023-04-01T02:27:27;8.87;;;5.37;;
19758;SDS011;10038;42.662;23.278;2023-04-01T02:29:54;10.80;;;4.77;;
19758;SDS011;10038;42.662;23.278;2023-04-01T02:32:21;12.00;;;4.87;;
19758;SDS011;10038;42.662;23.278;2023-04-01T02:34:48;7.37;;;5.30;;
19758;SDS011;10038;42.662;23.278;2023-04-01T02:37:16;8.80;;;5.20;;
19758;SDS011;10038;42.662;23.278;2023-04-01T02:39:43;10.17;;;5.73;;
19758;SDS011;10038;42.662;23.278;2023-04-01T02:42:12;9.80;;;6.20;;
19758;SDS011;10038;42.662;23.278;2023-04-01T02:44:40;11.57;;;5.53;;
19758;SDS011;10038;42.662;23.278;2023-04-01T02:47:07;7.03;;;5.50;;
19758;SDS011;10038;42.662;23.278;2023-04-01T02:49:33;9.67;;;5.27;;
19758;SDS011;10038;42.662;23.278;2023-04-01T02:52:00;10.83;;;5.90;;
19758;SDS011;10038;42.662;23.278;2023-04-01T02:54:27;16.33;;;5.17;;
19758;SDS011;10038;42.662;23.278;2023-04-01T02:56:54;11.47;;;7.03;;
19758;SDS011;10038;42.662;23.278;2023-04-01T02:59:22;13.13;;;5.60;;
19758;SDS011;10038;42.662;23.278;2023-04-01T03:01:49;6.40;;;5.20;;
19758;SDS011;10038;42.662;23.278;2023-04-01T03:04:16;12.33;;;6.63;;
19758;SDS011;10038;42.662;23.278;2023-04-01T03:06:43;10.10;;;6.60;;
19758;SDS011;10038;42.662;23.278;2023-04-01T03:09:10;10.90;;;6.03;;
19758;SDS011;10038;42.662;23.278;2023-04-01T03:11:37;11.07;;;6.40;;
19758;SDS011;10038;42.662;23.278;2023-04-01T03:14:04;12.17;;;7.67;;
19758;SDS011;10038;42.662;23.278;2023-04-01T03:16:33;10.13;;;7.30;;
19758;SDS011;10038;42.662;23.278;2023-04-01T03:19:00;14.77;;;8.00;;
19758;SDS011;10038;42.662;23.278;2023-04-01T03:21:27;17.70;;;8.60;;
19758;SDS011;10038;42.662;23.278;2023-04-01T03:23:54;15.17;;;10.10;;
19758;SDS011;10038;42.662;23.278;2023-04-01T03:26:21;9.73;;;7.60;;
19758;SDS011;10038;42.662;23.278;2023-04-01T03:28:48;9.73;;;7.00;;
19758;SDS011;10038;42.662;23.278;2023-04-01T03:31:15;12.73;;;8.00;;
19758;SDS011;10038;42.662;23.278;2023-04-01T03:33:43;15.03;;;7.47;;
19758;SDS011;10038;42.662;23.278;2023-04-01T03:36:10;13.80;;;7.53;;
19758;SDS011;10038;42.662;23.278;2023-04-01T03:38:38;12.10;;;7.40;;
19758;SDS011;10038;42.662;23.278;2023-04-01T03:41:06;10.03;;;5.40;;
19758;SDS011;10038;42.662;23.278;2023-04-01T03:43:32;7.57;;;3.00;;
19758;SDS011;10038;42.662;23.278;2023-04-01T03:45:59;8.10;;;5.20;;
19758;SDS011;10038;42.662;23.278;2023-04-01T03:48:26;8.40;;;5.03;;
19758;SDS011;10038;42.662;23.278;2023-04-01T03:50:55;11.50;;;5.93;;
19758;SDS011;10038;42.662;23.278;2023-04-01T03:53:22;11.20;;;6.53;;
19758;SDS011;10038;42.662;23.278;2023-04-01T03:55:49;10.03;;;6.43;;
19758;SDS011;10038;42.662;23.278;2023-04-01T03:58:16;13.17;;;6.70;;
19758;SDS011;10038;42.662;23.278;2023-04-01T04:00:43;14.50;;;5.37;;
19758;SDS011;10038;42.662;23.278;2023-04-01T04:03:10;16.33;;;5.00;;
19758;SDS011;10038;42.662;23.278;2023-04-01T04:05:37;8.90;;;4.27;;
19758;SDS011;10038;42.662;23.278;2023-04-01T04:08:06;4.40;;;3.50;;
19758;SDS011;10038;42.662;23.278;2023-04-01T04:10:32;6.57;;;3.83;;
19758;SDS011;10038;42.662;23.278;2023-04-01T04:13:00;8.73;;;4.23;;
19758;SDS011;10038;42.662;23.278;2023-04-01T04:15:27;5.07;;;3.63;;
19758;SDS011;10038;42.662;23.278;2023-04-01T04:17:54;6.70;;;3.73;;
19758;SDS011;10038;42.662;23.278;2023-04-01T04:20:21;5.73;;;3.87;;
19758;SDS011;10038;42.662;23.278;2023-04-01T04:22:48;7.10;;;3.70;;
19758;SDS011;10038;42.662;23.278;2023-04-01T04:25:16;7.13;;;4.37;;
19758;SDS011;10038;42.662;23.278;2023-04-01T04:27:43;9.57;;;4.03;;
19758;SDS011;10038;42.662;23.278;2023-04-01T04:30:10;8.23;;;4.67;;
19758;SDS011;10038;42.662;23.278;2023-04-01T04:32:38;6.40;;;4.20;;
19758;SDS011;10038;42.662;23.278;2023-04-01T04:35:06;9.33;;;4.90;;
19758;SDS011;10038;42.662;23.278;2023-04-01T04:37:34;10.07;;;6.37;;
19758;SDS011;10038;42.662;23.278;2023-04-01T04:40:01;7.93;;;5.80;;
19758;SDS011;10038;42.662;23.278;2023-04-01T04:42:29;13.00;;;7.10;;
19758;SDS011;10038;42.662;23.278;2023-04-01T04:44:56;12.13;;;7.37;;
19758;SDS011;10038;42.662;23.278;2023-04-01T04:47:23;14.50;;;8.10;;
19758;SDS011;10038;42.662;23.278;2023-04-01T04:49:50;15.67;;;7.30;;
19758;SDS011;10038;42.662;23.278;2023-04-01T04:52:17;8.80;;;6.27;;
19758;SDS011;10038;42.662;23.278;2023-04-01T04:54:43;12.90;;;7.17;;
19758;SDS011;10038;42.662;23.278;2023-04-01T04:57:10;15.80;;;7.30;;
19758;SDS011;10038;42.662;23.278;2023-04-01T04:59:39;9.90;;;5.40;;
19758;SDS011;10038;42.662;23.278;2023-04-01T05:02:06;8.63;;;6.43;;
19758;SDS011;10038;42.662;23.278;2023-04-01T05:04:34;10.83;;;5.80;;
19758;SDS011;10038;42.662;23.278;2023-04-01T05:07:01;10.27;;;6.00;;
19758;SDS011;10038;42.662;23.278;2023-04-01T05:09:28;10.20;;;7.17;;
19758;SDS011;10038;42.662;23.278;2023-04-01T05:11:56;10.23;;;6.00;;
19758;SDS011;10038;42.662;23.278;2023-04-01T05:14:23;10.30;;;7.33;;
19758;SDS011;10038;42.662;23.278;2023-04-01T05:16:51;14.00;;;7.00;;
19758;SDS011;10038;42.662;23.278;2023-04-01T05:19:19;11.60;;;7.30;;
19758;SDS011;10038;42.662;23.278;2023-04-01T05:21:46;10.60;;;8.23;;
19758;SDS011;10038;42.662;23.278;2023-04-01T05:24:13;11.97;;;7.70;;
19758;SDS011;10038;42.662;23.278;2023-04-01T05:26:40;9.10;;;6.33;;
19758;SDS011;10038;42.662;23.278;2023-04-01T05:29:07;9.13;;;6.97;;
19758;SDS011;10038;42.662;23.278;2023-04-01T05:31:33;13.43;;;5.93;;
19758;SDS011;10038;42.662;23.278;2023-04-01T05:34:02;9.07;;;6.73;;
19758;SDS011;10038;42.662;23.278;2023-04-01T05:36:29;9.50;;;6.23;;
19758;SDS011;10038;42.662;23.278;2023-04-01T05:38:56;9.87;;;6.00;;
19758;SDS011;10038;42.662;23.278;2023-04-01T05:41:23;12.80;;;6.73;;
19758;SDS011;10038;42.662;23.278;2023-04-01T05:43:50;17.53;;;5.87;;
19758;SDS011;10038;42.662;23.278;2023-04-01T05:46:17;17.93;;;7.70;;
19758;SDS011;10038;42.662;23.278;2023-04-01T05:48:44;10.53;;;5.60;;
19758;SDS011;10038;42.662;23.278;2023-04-01T05:51:15;9.63;;;5.47;;
19758;SDS011;10038;42.662;23.278;2023-04-01T05:53:42;8.07;;;5.47;;
19758;SDS011;10038;42.662;23.278;2023-04-01T05:56:09;10.20;;;6.43;;
19758;SDS011;10038;42.662;23.278;2023-04-01T05:58:36;10.23;;;5.67;;
19758;SDS011;10038;42.662;23.278;2023-04-01T06:01:04;12.10;;;5.60;;
19758;SDS011;10038;42.662;23.278;2023-04-01T06:03:33;8.70;;;5.17;;
19758;SDS011;10038;42.662;23.278;2023-04-01T06:06:00;7.23;;;5.13;;
19758;SDS011;10038;42.662;23.278;2023-04-01T06:08:30;10.60;;;6.13;;
19758;SDS011;10038;42.662;23.278;2023-04-01T06:11:00;8.53;;;6.73;;
19758;SDS011;10038;42.662;23.278;2023-04-01T06:13:38;12.37;;;4.80;;
19758;SDS011;10038;42.662;23.278;2023-04-01T06:16:21;10.70;;;5.97;;
19758;SDS011;10038;42.662;23.278;2023-04-01T06:19:10;8.70;;;4.87;;
19758;SDS011;10038;42.662;23.278;2023-04-01T06:21:51;11.50;;;6.30;;
19758;SDS011;10038;42.662;23.278;2023-04-01T06:24:52;10.87;;;5.20;;
19758;SDS011;10038;42.662;23.278;2023-04-01T06:27:36;13.23;;;6.27;;
19758;SDS011;10038;42.662;23.278;2023-04-01T06:30:24;10.73;;;5.13;;
19758;SDS011;10038;42.662;23.278;2023-04-01T06:33:02;7.80;;;4.60;;
19758;SDS011;10038;42.662;23.278;2023-04-01T06:35:49;8.80;;;5.20;;
19758;SDS011;10038;42.662;23.278;2023-04-01T06:38:29;9.60;;;3.90;;
19758;SDS011;10038;42.662;23.278;2023-04-01T06:41:13;8.10;;;4.47;;
19758;SDS011;10038;42.662;23.278;2023-04-01T06:43:55;9.43;;;5.20;;
19758;SDS011;10038;42.662;23.278;2023-04-01T06:46:32;9.80;;;5.30;;
19758;SDS011;10038;42.662;23.278;2023-04-01T06:49:26;9.80;;;3.80;;
19758;SDS011;10038;42.662;23.278;2023-04-01T06:52:03;5.07;;;3.60;;
19758;SDS011;10038;42.662;23.278;2023-04-01T06:54:38;8.73;;;3.60;;
19758;SDS011;10038;42.662;23.278;2023-04-01T06:57:13;4.83;;;4.00;;
19758;SDS011;10038;42.662;23.278;2023-04-01T06:59:48;5.40;;;3.37;;
19758;SDS011;10038;42.662;23.278;2023-04-01T07:02:18;7.70;;;4.77;;
19758;SDS011;10038;42.662;23.278;2023-04-01T07:04:51;11.30;;;5.20;;
19758;SDS011;10038;42.662;23.278;2023-04-01T07:07:24;6.90;;;5.90;;
19758;SDS011;10038;42.662;23.278;2023-04-01T07:09:58;8.90;;;5.87;;
19758;SDS011;10038;42.662;23.278;2023-04-01T07:12:32;9.17;;;5.07;;
19758;SDS011;10038;42.662;23.278;2023-04-01T07:15:05;8.97;;;5.40;;
19758;SDS011;10038;42.662;23.278;2023-04-01T07:17:43;8.47;;;4.90;;
19758;SDS011;10038;42.662;23.278;2023-04-01T07:20:14;6.60;;;5.60;;
19758;SDS011;10038;42.662;23.278;2023-04-01T07:22:47;12.50;;;6.87;;
19758;SDS011;10038;42.662;23.278;2023-04-01T07:25:16;9.13;;;5.03;;
19758;SDS011;10038;42.662;23.278;2023-04-01T07:27:47;7.40;;;5.13;;
19758;SDS011;10038;42.662;23.278;2023-04-01T07:30:15;6.67;;;5.30;;
19758;SDS011;10038;42.662;23.278;2023-04-01T07:32:45;8.93;;;6.10;;
19758;SDS011;10038;42.662;23.278;2023-04-01T07:35:18;9.03;;;5.17;;
19758;SDS011;10038;42.662;23.278;2023-04-01T07:37:55;13.30;;;7.30;;
19758;SDS011;10038;42.662;23.278;2023-04-01T07:40:35;8.97;;;5.50;;
19758;SDS011;10038;42.662;23.278;2023-04-01T07:43:17;8.97;;;6.50;;
19758;SDS011;10038;42.662;23.278;2023-04-01T07:46:05;12.87;;;5.70;;
19758;SDS011;10038;42.662;23.278;2023-04-01T07:48:43;11.37;;;5.40;;
19758;SDS011;10038;42.662;23.278;2023-04-01T07:51:19;11.13;;;6.80;;
19758;SDS011;10038;42.662;23.278;2023-04-01T07:53:51;10.80;;;5.57;;
19758;SDS011;10038;42.662;23.278;2023-04-01T07:56:30;11.00;;;5.13;;
19758;SDS011;10038;42.662;23.278;2023-04-01T07:59:07;7.50;;;5.50;;
19758;SDS011;10038;42.662;23.278;2023-04-01T08:01:44;8.93;;;5.63;;
19758;SDS011;10038;42.662;23.278;2023-04-01T08:04:23;12.33;;;7.00;;
19758;SDS011;10038;42.662;23.278;2023-04-01T08:06:59;12.60;;;5.13;;
19758;SDS011;10038;42.662;23.278;2023-04-01T08:09:35;11.77;;;5.23;;
19758;SDS011;10038;42.662;23.278;2023-04-01T08:12:13;6.77;;;4.97;;
19758;SDS011;10038;42.662;23.278;2023-04-01T08:14:53;6.20;;;4.50;;
19758;SDS011;10038;42.662;23.278;2023-04-01T08:17:30;7.20;;;4.80;;
19758;SDS011;10038;42.662;23.278;2023-04-01T08:20:13;6.70;;;5.03;;
19758;SDS011;10038;42.662;23.278;2023-04-01T08:22:50;8.27;;;5.23;;
19758;SDS011;10038;42.662;23.278;2023-04-01T08:25:24;8.10;;;5.23;;
19758;SDS011;10038;42.662;23.278;2023-04-01T08:27:53;11.93;;;6.23;;
19758;SDS011;10038;42.662;23.278;2023-04-01T08:30:28;7.20;;;5.10;;
19758;SDS011;10038;42.662;23.278;2023-04-01T08:33:06;9.87;;;6.33;;
19758;SDS011;10038;42.662;23.278;2023-04-01T08:35:41;10.20;;;6.40;;
19758;SDS011;10038;42.662;23.278;2023-04-01T08:38:16;11.50;;;5.80;;
19758;SDS011;10038;42.662;23.278;2023-04-01T08:40:51;14.47;;;5.87;;
19758;SDS011;10038;42.662;23.278;2023-04-01T08:49:47;8.00;;;3.67;;
19758;SDS011;10038;42.662;23.278;2023-04-01T08:52:27;6.97;;;4.93;;
19758;SDS011;10038;42.662;23.278;2023-04-01T08:58:47;9.43;;;4.33;;
19758;SDS011;10038;42.662;23.278;2023-04-01T09:01:32;6.70;;;4.50;;
19758;SDS011;10038;42.662;23.278;2023-04-01T09:04:25;7.93;;;4.73;;
19758;SDS011;10038;42.662;23.278;2023-04-01T09:07:10;10.07;;;4.50;;
19758;SDS011;10038;42.662;23.278;2023-04-01T09:12:52;6.83;;;3.97;;
19758;SDS011;10038;42.662;23.278;2023-04-01T09:15:46;9.30;;;4.07;;
19758;SDS011;10038;42.662;23.278;2023-04-01T09:18:29;8.10;;;4.60;;
19758;SDS011;10038;42.662;23.278;2023-04-01T09:21:19;5.73;;;4.03;;
19758;SDS011;10038;42.662;23.278;2023-04-01T09:24:08;9.40;;;3.87;;
19758;SDS011;10038;42.662;23.278;2023-04-01T09:27:02;9.10;;;4.30;;
19758;SDS011;10038;42.662;23.278;2023-04-01T09:29:37;7.00;;;3.53;;
19758;SDS011;10038;42.662;23.278;2023-04-01T09:35:36;8.17;;;4.33;;
19758;SDS011;10038;42.662;23.278;2023-04-01T09:38:14;13.23;;;4.77;;
19758;SDS011;10038;42.662;23.278;2023-04-01T09:40:54;9.17;;;2.70;;
19758;SDS011;10038;42.662;23.278;2023-04-01T09:43:25;4.10;;;2.03;;
19758;SDS011;10038;42.662;23.278;2023-04-01T09:46:00;5.00;;;1.70;;
19758;SDS011;10038;42.662;23.278;2023-04-01T09:51:48;7.63;;;2.07;;
19758;SDS011;10038;42.662;23.278;2023-04-01T09:54:27;11.27;;;3.40;;
19758;SDS011;10038;42.662;23.278;2023-04-01T10:03:36;2.20;;;1.70;;
19758;SDS011;10038;42.662;23.278;2023-04-01T10:09:47;8.83;;;1.73;;
19758;SDS011;10038;42.662;23.278;2023-04-01T10:15:41;8.20;;;3.63;;
19758;SDS011;10038;42.662;23.278;2023-04-01T10:24:58;6.27;;;2.10;;
19758;SDS011;10038;42.662;23.278;2023-04-01T10:30:50;3.90;;;1.80;;
19758;SDS011;10038;42.662;23.278;2023-04-01T10:36:54;4.93;;;3.03;;
19758;SDS011;10038;42.662;23.278;2023-04-01T10:39:34;5.10;;;3.00;;
19758;SDS011;10038;42.662;23.278;2023-04-01T10:42:23;5.77;;;3.23;;
19758;SDS011;10038;42.662;23.278;2023-04-01T10:48:16;4.47;;;2.70;;
19758;SDS011;10038;42.662;23.278;2023-04-01T10:54:05;4.70;;;2.30;;
19758;SDS011;10038;42.662;23.278;2023-04-01T11:09:10;4.50;;;1.70;;
19758;SDS011;10038;42.662;23.278;2023-04-01T11:15:37;5.73;;;1.90;;
19758;SDS011;10038;42.662;23.278;2023-04-01T11:24:58;4.97;;;1.67;;
19758;SDS011;10038;42.662;23.278;2023-04-01T11:30:49;8.47;;;2.73;;
19758;SDS011;10038;42.662;23.278;2023-04-01T11:33:28;6.83;;;2.33;;
19758;SDS011;10038;42.662;23.278;2023-04-01T11:36:09;4.27;;;2.10;;
19758;SDS011;10038;42.662;23.278;2023-04-01T11:38:55;5.67;;;2.50;;
19758;SDS011;10038;42.662;23.278;2023-04-01T11:41:32;6.23;;;2.10;;
19758;SDS011;10038;42.662;23.278;2023-04-01T11:44:10;5.60;;;2.17;;
19758;SDS011;10038;42.662;23.278;2023-04-01T11:46:48;2.03;;;1.83;;
19758;SDS011;10038;42.662;23.278;2023-04-01T11:52:37;3.80;;;2.60;;
19758;SDS011;10038;42.662;23.278;2023-04-01T11:55:23;7.90;;;3.63;;
19758;SDS011;10038;42.662;23.278;2023-04-01T11:58:07;7.43;;;2.97;;
19758;SDS011;10038;42.662;23.278;2023-04-01T12:01:07;10.57;;;3.97;;
19758;SDS011;10038;42.662;23.278;2023-04-01T12:03:46;4.63;;;3.00;;
19758;SDS011;10038;42.662;23.278;2023-04-01T12:06:29;5.93;;;3.50;;
19758;SDS011;10038;42.662;23.278;2023-04-01T12:09:04;7.70;;;4.30;;
19758;SDS011;10038;42.662;23.278;2023-04-01T12:11:42;5.23;;;3.50;;
19758;SDS011;10038;42.662;23.278;2023-04-01T12:14:21;11.30;;;4.20;;
19758;SDS011;10038;42.662;23.278;2023-04-01T12:16:59;9.53;;;4.80;;
19758;SDS011;10038;42.662;23.278;2023-04-01T12:19:36;7.73;;;4.23;;
19758;SDS011;10038;42.662;23.278;2023-04-01T12:22:23;11.20;;;4.73;;
19758;SDS011;10038;42.662;23.278;2023-04-01T12:25:07;7.83;;;4.20;;
19758;SDS011;10038;42.662;23.278;2023-04-01T12:27:49;6.60;;;3.90;;
19758;SDS011;10038;42.662;23.278;2023-04-01T12:30:32;7.90;;;3.97;;
19758;SDS011;10038;42.662;23.278;2023-04-01T12:36:05;6.40;;;2.93;;
19758;SDS011;10038;42.662;23.278;2023-04-01T12:38:44;5.60;;;4.17;;
19758;SDS011;10038;42.662;23.278;2023-04-01T12:41:26;7.00;;;4.53;;
19758;SDS011;10038;42.662;23.278;2023-04-01T12:46:56;10.23;;;4.53;;
19758;SDS011;10038;42.662;23.278;2023-04-01T12:49:42;5.90;;;4.40;;
19758;SDS011;10038;42.662;23.278;2023-04-01T12:52:41;3.97;;;3.33;;
19758;SDS011;10038;42.662;23.278;2023-04-01T12:55:19;7.53;;;3.23;;
19758;SDS011;10038;42.662;23.278;2023-04-01T12:58:15;5.37;;;3.50;;
19758;SDS011;10038;42.662;23.278;2023-04-01T13:01:10;4.60;;;3.60;;
19758;SDS011;10038;42.662;23.278;2023-04-01T13:07:16;7.80;;;2.87;;
19758;SDS011;10038;42.662;23.278;2023-04-01T13:09:51;2.87;;;2.27;;
19758;SDS011;10038;42.662;23.278;2023-04-01T13:12:29;3.00;;;1.50;;
19758;SDS011;10038;42.662;23.278;2023-04-01T13:18:06;2.87;;;2.53;;
19758;SDS011;10038;42.662;23.278;2023-04-01T13:20:47;4.27;;;3.00;;
19758;SDS011;10038;42.662;23.278;2023-04-01T13:23:27;3.10;;;2.83;;
19758;SDS011;10038;42.662;23.278;2023-04-01T13:26:09;2.80;;;2.50;;
19758;SDS011;10038;42.662;23.278;2023-04-01T13:28:45;2.03;;;1.63;;
19758;SDS011;10038;42.662;23.278;2023-04-01T13:31:22;4.63;;;1.97;;
19758;SDS011;10038;42.662;23.278;2023-04-01T13:33:58;2.30;;;1.70;;
19758;SDS011;10038;42.662;23.278;2023-04-01T13:36:36;2.60;;;1.57;;
19758;SDS011;10038;42.662;23.278;2023-04-01T13:39:22;2.10;;;1.50;;
19758;SDS011;10038;42.662;23.278;2023-04-01T13:42:06;2.43;;;1.57;;
19758;SDS011;10038;42.662;23.278;2023-04-01T13:44:43;2.83;;;1.67;;
19758;SDS011;10038;42.662;23.278;2023-04-01T13:50:34;2.20;;;1.60;;
19758;SDS011;10038;42.662;23.278;2023-04-01T13:53:25;1.80;;;1.27;;
19758;SDS011;10038;42.662;23.278;2023-04-01T13:56:16;1.90;;;1.27;;
19758;SDS011;10038;42.662;23.278;2023-04-01T13:59:10;2.50;;;1.30;;
19758;SDS011;10038;42.662;23.278;2023-04-01T14:01:58;2.00;;;1.40;;
19758;SDS011;10038;42.662;23.278;2023-04-01T14:04:52;2.80;;;1.50;;
19758;SDS011;10038;42.662;23.278;2023-04-01T14:07:32;3.10;;;1.57;;
19758;SDS011;10038;42.662;23.278;2023-04-01T14:13:30;2.00;;;1.30;;
19758;SDS011;10038;42.662;23.278;2023-04-01T14:16:12;6.67;;;1.30;;
19758;SDS011;10038;42.662;23.278;2023-04-01T14:19:00;2.27;;;2.00;;
19758;SDS011;10038;42.662;23.278;2023-04-01T14:21:35;1.97;;;1.57;;
19758;SDS011;10038;42.662;23.278;2023-04-01T14:24:22;2.07;;;1.43;;
19758;SDS011;10038;42.662;23.278;2023-04-01T14:27:11;2.10;;;1.63;;
19758;SDS011;10038;42.662;23.278;2023-04-01T14:30:02;3.40;;;1.60;;
19758;SDS011;10038;42.662;23.278;2023-04-01T14:32:43;4.90;;;2.67;;
19758;SDS011;10038;42.662;23.278;2023-04-01T14:35:24;8.07;;;4.10;;
19758;SDS011;10038;42.662;23.278;2023-04-01T14:38:23;3.07;;;1.93;;
19758;SDS011;10038;42.662;23.278;2023-04-01T14:40:56;1.60;;;1.50;;
19758;SDS011;10038;42.662;23.278;2023-04-01T14:43:47;3.07;;;1.70;;
19758;SDS011;10038;42.662;23.278;2023-04-01T14:46:37;3.90;;;1.10;;
19758;SDS011;10038;42.662;23.278;2023-04-01T14:49:30;2.10;;;1.40;;
19758;SDS011;10038;42.662;23.278;2023-04-01T14:52:03;1.60;;;1.50;;
19758;SDS011;10038;42.662;23.278;2023-04-01T14:54:32;3.97;;;1.57;;
19758;SDS011;10038;42.662;23.278;2023-04-01T14:57:05;2.33;;;1.50;;
19758;SDS011;10038;42.662;23.278;2023-04-01T14:59:39;1.73;;;1.30;;
19758;SDS011;10038;42.662;23.278;2023-04-01T15:02:11;2.50;;;1.40;;
19758;SDS011;10038;42.662;23.278;2023-04-01T15:04:56;5.53;;;1.47;;
19758;SDS011;10038;42.662;23.278;2023-04-01T15:10:41;2.20;;;1.50;;
19758;SDS011;10038;42.662;23.278;2023-04-01T15:13:20;3.10;;;1.70;;
19758;SDS011;10038;42.662;23.278;2023-04-01T15:16:02;23.83;;;12.10;;
19758;SDS011;10038;42.662;23.278;2023-04-01T15:18:44;3.77;;;1.90;;
19758;SDS011;10038;42.662;23.278;2023-04-01T15:21:25;2.43;;;1.80;;
19758;SDS011;10038;42.662;23.278;2023-04-01T15:24:07;2.13;;;1.80;;
19758;SDS011;10038;42.662;23.278;2023-04-01T15:32:31;2.90;;;2.20;;
19758;SDS011;10038;42.662;23.278;2023-04-01T15:35:18;2.60;;;1.70;;
19758;SDS011;10038;42.662;23.278;2023-04-01T15:37:58;3.23;;;1.50;;
19758;SDS011;10038;42.662;23.278;2023-04-01T15:40:33;2.20;;;1.90;;
19758;SDS011;10038;42.662;23.278;2023-04-01T15:43:14;2.20;;;1.90;;
19758;SDS011;10038;42.662;23.278;2023-04-01T15:45:56;5.17;;;2.07;;
19758;SDS011;10038;42.662;23.278;2023-04-01T15:48:44;4.00;;;2.20;;
19758;SDS011;10038;42.662;23.278;2023-04-01T15:51:26;1.70;;;1.37;;
19758;SDS011;10038;42.662;23.278;2023-04-01T15:57:15;2.77;;;1.40;;
19758;SDS011;10038;42.662;23.278;2023-04-01T16:00:11;4.37;;;1.40;;
19758;SDS011;10038;42.662;23.278;2023-04-01T16:02:49;4.70;;;1.87;;
19758;SDS011;10038;42.662;23.278;2023-04-01T16:05:24;4.10;;;1.20;;
19758;SDS011;10038;42.662;23.278;2023-04-01T16:08:05;1.37;;;1.13;;
19758;SDS011;10038;42.662;23.278;2023-04-01T16:11:04;1.80;;;1.67;;
19758;SDS011;10038;42.662;23.278;2023-04-01T16:13:43;2.10;;;1.90;;
19758;SDS011;10038;42.662;23.278;2023-04-01T16:16:21;3.50;;;1.83;;
19758;SDS011;10038;42.662;23.278;2023-04-01T16:22:00;3.70;;;2.27;;
19758;SDS011;10038;42.662;23.278;2023-04-01T16:24:34;3.30;;;2.13;;
19758;SDS011;10038;42.662;23.278;2023-04-01T16:27:08;2.63;;;1.50;;
19758;SDS011;10038;42.662;23.278;2023-04-01T16:29:43;2.60;;;2.03;;
19758;SDS011;10038;42.662;23.278;2023-04-01T16:32:34;3.80;;;2.30;;
19758;SDS011;10038;42.662;23.278;2023-04-01T16:38:09;7.70;;;2.03;;
19758;SDS011;10038;42.662;23.278;2023-04-01T16:40:50;2.13;;;1.73;;
19758;SDS011;10038;42.662;23.278;2023-04-01T16:43:28;2.40;;;1.73;;
19758;SDS011;10038;42.662;23.278;2023-04-01T16:46:12;3.17;;;2.03;;
19758;SDS011;10038;42.662;23.278;2023-04-01T16:49:00;1.70;;;1.43;;
19758;SDS011;10038;42.662;23.278;2023-04-01T16:51:44;3.13;;;1.50;;
19758;SDS011;10038;42.662;23.278;2023-04-01T16:54:17;2.90;;;1.50;;
19758;SDS011;10038;42.662;23.278;2023-04-01T16:56:55;3.20;;;2.13;;
19758;SDS011;10038;42.662;23.278;2023-04-01T16:59:29;2.90;;;1.90;;
19758;SDS011;10038;42.662;23.278;2023-04-01T17:02:02;2.00;;;1.30;;
19758;SDS011;10038;42.662;23.278;2023-04-01T17:04:37;3.10;;;1.60;;
19758;SDS011;10038;42.662;23.278;2023-04-01T17:07:20;6.67;;;2.30;;
19758;SDS011;10038;42.662;23.278;2023-04-01T17:13:18;4.50;;;2.50;;
19758;SDS011;10038;42.662;23.278;2023-04-01T17:15:58;7.20;;;4.40;;
19758;SDS011;10038;42.662;23.278;2023-04-01T17:18:37;3.57;;;2.20;;
19758;SDS011;10038;42.662;23.278;2023-04-01T17:21:16;6.00;;;2.07;;
19758;SDS011;10038;42.662;23.278;2023-04-01T17:23:50;3.37;;;2.20;;